Time;durP1;ratioP1;P1;durP2;ratioP2;P2;SDS_P1;SDS_P2;PMS_P1;PMS_P2;Temp;Humidity;BMP_temperature;BMP_pressure;BME280_temperature;BME280_humidity;BME280_pressure;Samples;Min_cycle;Max_cycle;Signal;HPM_P1;HPM_P2
2021/01/19 00:00:06;;;;;;;7.60;4.25;;;0.30;99.90;;;;;;4958808;28;20024;-81
2021/01/19 00:02:31;;;;;;;10.63;4.38;;;0.30;99.90;;;;;;4957247;29;20475;-81
2021/01/19 00:04:59;;;;;;;7.78;4.22;;;0.30;99.90;;;;;;4957268;29;20033;-81
2021/01/19 00:07:25;;;;;;;9.63;4.72;;;0.30;99.90;;;;;;4957211;29;20109;-81
2021/01/19 00:09:50;;;;;;;7.53;4.40;;;0.20;99.90;;;;;;4957203;29;20458;-81
2021/01/19 00:12:16;;;;;;;9.07;4.82;;;0.20;99.90;;;;;;4957109;29;20035;-81
2021/01/19 00:14:44;;;;;;;9.68;5.20;;;0.20;99.90;;;;;;4956978;29;20027;-81
2021/01/19 00:17:10;;;;;;;6.65;4.72;;;0.30;99.90;;;;;;4958556;28;20019;-81
2021/01/19 00:19:35;;;;;;;11.98;4.55;;;0.40;99.90;;;;;;4958501;28;20375;-81
2021/01/19 00:22:01;;;;;;;8.55;4.43;;;0.20;99.90;;;;;;4956988;29;20030;-81
2021/01/19 00:24:27;;;;;;;9.02;4.30;;;0.30;99.90;;;;;;4956872;29;20031;-81
2021/01/19 00:26:52;;;;;;;12.25;4.47;;;0.20;99.90;;;;;;4958066;28;20102;-80
2021/01/19 00:29:18;;;;;;;10.10;4.30;;;0.20;99.90;;;;;;4958087;28;20415;-81
2021/01/19 00:31:44;;;;;;;9.00;4.22;;;0.20;99.90;;;;;;4956790;29;20054;-81
2021/01/19 00:34:09;;;;;;;8.43;4.07;;;0.20;99.90;;;;;;4958421;28;20107;-81
2021/01/19 00:36:35;;;;;;;10.82;4.50;;;0.30;99.90;;;;;;4958030;28;20030;-80
2021/01/19 00:39:01;;;;;;;8.25;4.28;;;0.40;99.90;;;;;;4956630;29;20114;-81
2021/01/19 00:41:26;;;;;;;6.72;3.97;;;0.30;99.90;;;;;;4956223;29;20082;-81
2021/01/19 00:43:52;;;;;;;9.88;4.35;;;0.30;99.90;;;;;;4956357;29;20031;-81
2021/01/19 00:46:18;;;;;;;7.32;4.00;;;0.40;99.90;;;;;;4957798;28;20419;-81
2021/01/19 00:48:43;;;;;;;8.70;3.47;;;0.40;99.90;;;;;;4956088;29;20023;-81
2021/01/19 00:51:09;;;;;;;7.75;3.63;;;0.40;99.90;;;;;;4955383;29;20039;-82
2021/01/19 00:53:35;;;;;;;5.90;3.60;;;0.40;99.90;;;;;;4956316;29;20028;-81
2021/01/19 00:56:01;;;;;;;9.60;4.18;;;0.50;99.90;;;;;;4957604;28;20074;-81
2021/01/19 00:58:26;;;;;;;13.40;4.10;;;0.50;99.90;;;;;;4956266;29;20522;-81
2021/01/19 01:00:52;;;;;;;8.02;3.80;;;0.60;99.90;;;;;;4956184;28;20114;-81
2021/01/19 01:03:18;;;;;;;7.88;4.00;;;0.60;99.90;;;;;;4956172;29;20045;-82
2021/01/19 01:05:43;;;;;;;8.55;4.10;;;0.60;99.90;;;;;;4957406;28;20027;-81
2021/01/19 01:08:09;;;;;;;4.95;3.45;;;0.70;99.90;;;;;;4956122;29;20435;-82
2021/01/19 01:10:35;;;;;;;7.50;3.58;;;0.60;99.90;;;;;;4956067;29;20028;-81
2021/01/19 01:13:00;;;;;;;8.90;2.95;;;0.60;99.90;;;;;;4956018;29;20119;-81
2021/01/19 01:15:33;;;;;;;8.73;3.25;;;0.50;99.90;;;;;;4957385;28;20081;-81
2021/01/19 01:17:58;;;;;;;7.53;3.47;;;0.50;99.90;;;;;;4955928;29;20097;-80
2021/01/19 01:20:24;;;;;;;7.28;3.58;;;0.50;99.90;;;;;;4955879;29;20027;-81
2021/01/19 01:22:51;;;;;;;5.88;3.22;;;0.50;99.90;;;;;;4957067;28;20027;-81
2021/01/19 01:25:17;;;;;;;9.20;3.55;;;0.50;99.90;;;;;;4955785;29;20077;-81
2021/01/19 01:27:44;;;;;;;7.80;3.97;;;0.50;99.90;;;;;;4957261;28;20035;-81
2021/01/19 01:30:11;;;;;;;8.55;3.13;;;0.40;99.90;;;;;;4956959;28;20032;-81
2021/01/19 01:32:48;;;;;;;10.18;3.80;;;0.40;99.90;;;;;;4955557;29;20038;-81
2021/01/19 01:35:14;;;;;;;6.35;3.60;;;0.40;99.90;;;;;;4957086;28;20055;-81
2021/01/19 01:37:50;;;;;;;9.77;4.00;;;0.40;99.90;;;;;;4955462;28;20031;-81
2021/01/19 01:40:18;;;;;;;6.45;3.65;;;0.40;99.90;;;;;;4957122;28;20028;-81
2021/01/19 01:42:44;;;;;;;8.02;3.50;;;0.50;99.90;;;;;;4955489;29;20069;-81
2021/01/19 01:45:11;;;;;;;6.88;3.17;;;0.60;99.90;;;;;;4955383;29;20146;-81
2021/01/19 01:47:39;;;;;;;5.57;3.50;;;0.60;99.90;;;;;;4955387;29;20483;-81
2021/01/19 01:50:05;;;;;;;9.88;3.35;;;0.60;99.90;;;;;;4955306;29;20027;-81
2021/01/19 01:52:32;;;;;;;31.30;7.90;;;0.60;99.90;;;;;;4955254;29;20035;-81
2021/01/19 01:54:58;;;;;;;5.65;3.38;;;0.60;99.90;;;;;;4956397;28;20031;-82
2021/01/19 01:57:24;;;;;;;7.65;3.15;;;0.60;99.90;;;;;;4956472;28;20030;-82
2021/01/19 01:59:54;;;;;;;8.07;3.63;;;0.70;99.90;;;;;;4956445;28;20031;-82
2021/01/19 02:02:20;;;;;;;5.57;3.05;;;0.60;99.90;;;;;;4955954;29;20509;-82
2021/01/19 02:04:45;;;;;;;5.90;2.70;;;0.60;99.90;;;;;;4955072;29;20055;-82
2021/01/19 02:07:32;;;;;;;6.97;2.80;;;0.70;99.90;;;;;;4955057;29;20483;-81
2021/01/19 02:10:26;;;;;;;4.78;3.22;;;0.60;99.90;;;;;;4956273;28;20034;-81
2021/01/19 02:13:23;;;;;;;7.22;2.90;;;0.70;99.90;;;;;;4956025;28;20023;-81
2021/01/19 02:15:57;;;;;;;7.45;3.40;;;0.80;99.90;;;;;;4954880;29;20043;-82
2021/01/19 02:18:30;;;;;;;5.63;2.65;;;0.60;99.90;;;;;;4954886;29;20038;-81
2021/01/19 02:21:04;;;;;;;7.28;2.83;;;0.50;99.90;;;;;;4954720;29;20019;-82
2021/01/19 02:23:47;;;;;;;8.73;3.13;;;0.50;99.90;;;;;;4954816;29;20451;-81
2021/01/19 02:26:51;;;;;;;6.60;3.35;;;0.60;99.90;;;;;;4955967;28;20400;-81
2021/01/19 02:29:52;;;;;;;7.15;3.15;;;0.40;99.90;;;;;;4931898;29;20042;-82
2021/01/19 02:33:03;;;;;;;5.45;2.83;;;0.50;99.90;;;;;;4950762;29;20559;-81
2021/01/19 02:35:42;;;;;;;4.22;3.00;;;0.50;99.90;;;;;;4954508;29;20031;-81
2021/01/19 02:38:17;;;;;;;11.10;3.38;;;0.50;99.90;;;;;;4955760;28;20108;-81
2021/01/19 02:40:44;;;;;;;6.18;3.67;;;0.40;99.90;;;;;;4954507;29;20023;-81
2021/01/19 02:43:25;;;;;;;6.38;3.22;;;0.30;99.90;;;;;;4955741;28;20034;-81
2021/01/19 02:45:54;;;;;;;9.02;3.05;;;0.40;99.90;;;;;;4955595;28;20043;-81
2021/01/19 02:48:23;;;;;;;7.15;3.53;;;0.40;99.90;;;;;;4955608;28;20023;-81
2021/01/19 02:50:49;;;;;;;7.80;3.15;;;0.40;99.90;;;;;;4955614;28;20031;-82
2021/01/19 02:53:16;;;;;;;8.30;3.28;;;0.30;99.90;;;;;;4955501;28;20027;-81
2021/01/19 02:55:43;;;;;;;7.63;3.38;;;0.30;99.90;;;;;;4954315;29;20036;-81
2021/01/19 02:58:26;;;;;;;7.22;3.20;;;0.20;99.90;;;;;;4955539;28;20467;-81
2021/01/19 03:01:03;;;;;;;6.40;3.65;;;0.10;99.90;;;;;;4954351;29;20023;-81
2021/01/19 03:03:36;;;;;;;5.22;3.67;;;0.00;99.90;;;;;;4954193;29;20051;-81
2021/01/19 03:06:14;;;;;;;7.90;3.30;;;0.00;99.90;;;;;;4954247;29;20027;-82
2021/01/19 03:08:44;;;;;;;8.77;3.83;;;0.30;99.90;;;;;;4954117;29;20035;-82
2021/01/19 03:11:22;;;;;;;8.50;3.33;;;0.50;99.90;;;;;;4954150;29;20043;-82
2021/01/19 03:13:48;;;;;;;9.88;3.92;;;0.50;99.90;;;;;;4953961;29;20024;-81
2021/01/19 03:16:17;;;;;;;6.88;3.38;;;0.40;99.90;;;;;;4954090;29;20036;-81
2021/01/19 03:18:44;;;;;;;5.82;3.30;;;0.40;99.90;;;;;;4955305;28;20102;-82
2021/01/19 03:21:11;;;;;;;8.77;3.45;;;0.40;99.90;;;;;;4954200;29;20033;-82
2021/01/19 03:23:38;;;;;;;7.50;3.78;;;0.40;99.90;;;;;;4954040;28;20031;-81
2021/01/19 03:26:04;;;;;;;10.57;5.00;;;0.30;99.90;;;;;;4957488;29;20058;-81
2021/01/19 03:28:31;;;;;;;7.57;4.07;;;0.30;99.90;;;;;;4957898;29;20031;-82
2021/01/19 03:30:57;;;;;;;8.20;3.30;;;0.40;99.90;;;;;;4959102;28;20033;-81
2021/01/19 03:33:23;;;;;;;6.88;3.72;;;0.40;99.90;;;;;;4959288;28;20023;-82
2021/01/19 03:35:49;;;;;;;11.43;4.80;;;0.50;99.90;;;;;;4957686;28;20383;-81
2021/01/19 03:38:15;;;;;;;7.72;4.03;;;0.50;99.90;;;;;;4959151;28;20027;-81
2021/01/19 03:40:42;;;;;;;6.47;3.53;;;0.60;99.90;;;;;;4957634;29;20027;-81
2021/01/19 03:43:08;;;;;;;6.20;3.28;;;0.60;99.90;;;;;;4957901;29;20046;-82
2021/01/19 03:45:33;;;;;;;6.38;3.22;;;0.70;99.90;;;;;;4957399;29;20093;-82
2021/01/19 03:48:00;;;;;;;7.63;3.30;;;0.70;99.90;;;;;;4958777;28;20031;-82
2021/01/19 03:50:28;;;;;;;5.18;3.20;;;0.60;99.90;;;;;;4957572;29;20023;-82
2021/01/19 03:52:54;;;;;;;6.35;2.97;;;0.60;99.90;;;;;;4957453;29;20035;-82
2021/01/19 03:55:20;;;;;;;5.72;3.03;;;0.70;99.90;;;;;;4957359;29;20031;-82
2021/01/19 03:57:46;;;;;;;6.25;3.35;;;0.70;99.90;;;;;;4957437;29;20078;-81
2021/01/19 04:00:14;;;;;;;7.20;3.80;;;0.50;99.90;;;;;;4957382;29;20027;-81
2021/01/19 04:02:40;;;;;;;7.93;3.50;;;0.50;99.90;;;;;;4958545;28;20514;-82
2021/01/19 04:05:06;;;;;;;5.07;3.40;;;0.50;99.90;;;;;;4957264;29;20054;-82
2021/01/19 04:07:33;;;;;;;8.25;3.53;;;0.60;99.90;;;;;;4958484;28;20058;-82
2021/01/19 04:09:58;;;;;;;8.40;3.67;;;0.40;99.90;;;;;;4958397;28;20031;-82
2021/01/19 04:12:24;;;;;;;8.10;3.67;;;0.30;99.90;;;;;;4957100;29;20028;-82
2021/01/19 04:14:50;;;;;;;7.50;3.38;;;0.40;99.90;;;;;;4958101;29;20130;-82
2021/01/19 04:17:16;;;;;;;9.23;3.60;;;0.40;99.90;;;;;;4958284;28;20159;-82
2021/01/19 04:19:41;;;;;;;7.60;3.67;;;0.40;99.90;;;;;;4958223;28;20055;-82
2021/01/19 04:22:07;;;;;;;6.35;3.50;;;0.40;99.90;;;;;;4956970;29;20031;-81
2021/01/19 04:24:33;;;;;;;6.65;3.80;;;0.50;99.90;;;;;;4958436;28;20027;-82
2021/01/19 04:26:58;;;;;;;11.43;4.38;;;0.30;99.90;;;;;;4956845;29;20395;-82
2021/01/19 04:29:24;;;;;;;6.03;3.80;;;0.40;99.90;;;;;;4958346;28;20023;-82
2021/01/19 04:31:50;;;;;;;8.25;4.03;;;0.50;99.90;;;;;;4956769;29;20034;-82
2021/01/19 04:34:15;;;;;;;8.50;4.32;;;0.40;99.90;;;;;;4956639;29;20095;-82
2021/01/19 04:36:41;;;;;;;7.97;4.00;;;0.50;99.90;;;;;;4957471;28;20037;-82
2021/01/19 04:39:07;;;;;;;10.27;5.05;;;0.50;99.90;;;;;;4958146;28;20353;-82
2021/01/19 04:41:35;;;;;;;7.25;4.55;;;0.40;99.90;;;;;;4956604;29;20079;-82
2021/01/19 04:44:02;;;;;;;9.57;4.85;;;0.30;99.90;;;;;;4957877;28;20047;-82
2021/01/19 04:46:28;;;;;;;8.13;4.32;;;0.40;99.90;;;;;;4956549;29;20062;-82
2021/01/19 04:48:54;;;;;;;7.18;3.97;;;0.50;99.90;;;;;;4956415;29;20546;-82
2021/01/19 04:51:25;;;;;;;7.70;4.20;;;0.40;99.90;;;;;;4956440;29;20039;-82
2021/01/19 04:54:14;;;;;;;10.48;5.10;;;0.40;99.90;;;;;;4956357;29;20035;-81
2021/01/19 04:56:53;;;;;;;7.30;4.57;;;0.30;99.90;;;;;;4956294;29;20019;-81
2021/01/19 04:59:25;;;;;;;9.18;4.80;;;0.30;99.90;;;;;;4956136;29;20495;-82
2021/01/19 05:01:53;;;;;;;8.00;4.30;;;0.30;99.90;;;;;;4957558;28;20078;-81
2021/01/19 05:04:40;;;;;;;9.05;4.90;;;0.20;99.90;;;;;;4956133;29;20483;-81
2021/01/19 05:07:28;;;;;;;10.10;5.30;;;0.00;99.90;;;;;;4956108;29;20530;-81
2021/01/19 05:10:14;;;;;;;8.45;4.88;;;-0.20;99.90;;;;;;4956080;29;20478;-81
2021/01/19 05:12:39;;;;;;;8.85;5.15;;;-0.10;99.90;;;;;;4957543;28;20471;-81
2021/01/19 05:15:15;;;;;;;10.82;5.25;;;-0.30;99.90;;;;;;4955939;29;20086;-81
2021/01/19 05:17:42;;;;;;;8.45;5.13;;;-0.50;99.90;;;;;;4955990;29;20026;-81
2021/01/19 05:20:10;;;;;;;9.15;5.15;;;-0.50;99.90;;;;;;4957146;28;20438;-81
2021/01/19 05:22:36;;;;;;;12.85;5.55;;;-0.30;99.90;;;;;;4955873;29;20483;-81
2021/01/19 05:25:04;;;;;;;7.47;4.35;;;-0.10;99.90;;;;;;4957307;28;20502;-81
2021/01/19 05:27:30;;;;;;;7.95;4.78;;;-0.20;99.90;;;;;;4955758;29;20027;-81
2021/01/19 05:30:04;;;;;;;6.25;4.70;;;-0.10;99.90;;;;;;4956969;28;20028;-81
2021/01/19 05:32:40;;;;;;;;;;;0.00;99.90;;;;;;4956386;29;20030;-81
2021/01/19 05:35:19;;;;;;;9.43;5.28;;;-0.10;99.90;;;;;;4956833;28;19910;-81
2021/01/19 05:38:01;;;;;;;8.98;5.25;;;0.00;99.90;;;;;;4955478;28;20023;-81
2021/01/19 05:40:30;;;;;;;9.57;5.40;;;0.10;99.90;;;;;;4955477;29;20487;-81
2021/01/19 05:42:56;;;;;;;10.40;5.15;;;0.20;99.90;;;;;;4955523;29;20356;-81
2021/01/19 05:45:22;;;;;;;11.48;5.75;;;0.20;99.90;;;;;;4955283;29;20064;-81
2021/01/19 05:47:48;;;;;;;11.60;6.65;;;0.00;99.90;;;;;;4955430;28;20027;-81
2021/01/19 05:50:15;;;;;;;10.30;5.10;;;0.00;99.90;;;;;;4955323;29;20038;-81
2021/01/19 05:52:42;;;;;;;8.68;5.30;;;0.00;99.90;;;;;;4955556;29;20058;-81
2021/01/19 05:55:08;;;;;;;8.95;5.68;;;-0.10;99.90;;;;;;4955204;29;20034;-81
2021/01/19 05:57:34;;;;;;;7.72;5.65;;;-0.20;99.90;;;;;;4956399;28;20114;-81
2021/01/19 06:00:03;;;;;;;9.05;5.47;;;-0.20;99.90;;;;;;4956417;28;20055;-81
2021/01/19 06:02:39;;;;;;;10.90;5.28;;;-0.10;99.90;;;;;;4956273;28;20019;-82
2021/01/19 06:05:16;;;;;;;11.68;5.65;;;-0.20;99.90;;;;;;4956264;28;20027;-81
2021/01/19 06:07:45;;;;;;;13.73;5.70;;;-0.10;99.90;;;;;;4955048;29;20491;-81
2021/01/19 06:10:15;;;;;;;8.60;5.25;;;-0.10;99.90;;;;;;4954999;29;20386;-81
2021/01/19 06:12:42;;;;;;;10.80;5.53;;;-0.10;99.90;;;;;;4955028;29;20027;-81
2021/01/19 06:15:08;;;;;;;12.10;5.05;;;-0.10;99.90;;;;;;4956157;28;20078;-81
2021/01/19 06:17:35;;;;;;;9.18;5.07;;;-0.10;99.90;;;;;;4954793;29;20027;-81
2021/01/19 06:20:05;;;;;;;9.02;5.10;;;0.10;99.90;;;;;;4956115;28;20475;-81
2021/01/19 06:22:30;;;;;;;8.95;5.60;;;0.00;99.90;;;;;;4954753;29;20391;-81
2021/01/19 06:24:58;;;;;;;9.52;5.03;;;0.00;99.90;;;;;;4954738;29;20027;-81
2021/01/19 06:27:23;;;;;;;9.82;4.90;;;0.00;99.90;;;;;;4955967;28;20027;-81
2021/01/19 06:29:59;;;;;;;9.60;5.30;;;-0.30;99.90;;;;;;4954670;29;20059;-81
2021/01/19 06:32:33;;;;;;;10.13;5.15;;;-0.30;99.90;;;;;;4954585;29;20033;-81
2021/01/19 06:35:19;;;;;;;;;;;-0.50;99.90;;;;;;4954973;29;20034;-81
2021/01/19 06:37:47;;;;;;;8.20;5.25;;;-0.80;99.90;;;;;;4955675;28;20425;-81
2021/01/19 06:40:15;;;;;;;11.18;5.97;;;-0.50;99.90;;;;;;4954457;29;20027;-81
2021/01/19 06:42:42;;;;;;;11.90;5.68;;;-0.50;99.90;;;;;;4957041;28;20031;-80
2021/01/19 06:45:10;;;;;;;14.82;6.35;;;-1.00;99.90;;;;;;4954280;29;20542;-81
2021/01/19 06:47:57;;;;;;;13.15;5.05;;;-0.90;99.90;;;;;;4954372;29;20027;-81
2021/01/19 06:50:28;;;;;;;11.40;6.28;;;-0.80;99.90;;;;;;4954392;29;20114;-81
2021/01/19 06:53:24;;;;;;;11.40;5.85;;;-0.70;99.90;;;;;;4955868;28;20526;-81
2021/01/19 06:55:56;;;;;;;10.43;6.68;;;-0.50;99.90;;;;;;4954330;29;20368;-81
2021/01/19 06:58:56;;;;;;;9.05;5.22;;;-0.60;99.90;;;;;;4954123;28;20102;-81
2021/01/19 07:01:23;;;;;;;12.10;4.82;;;-0.50;99.90;;;;;;4954246;29;20031;-81
2021/01/19 07:04:01;;;;;;;10.57;5.35;;;-0.50;99.90;;;;;;4954236;29;20400;-81
2021/01/19 07:06:53;;;;;;;11.60;5.63;;;-0.50;99.90;;;;;;4954220;29;20038;-81
2021/01/19 07:09:52;;;;;;;8.00;5.18;;;-0.30;99.90;;;;;;4954144;29;20082;-81
2021/01/19 07:12:20;;;;;;;8.55;5.40;;;-0.30;99.90;;;;;;4954134;29;20019;-81
2021/01/19 07:15:02;;;;;;;8.95;4.65;;;-0.20;99.90;;;;;;4955295;28;20027;-81
2021/01/19 07:17:52;;;;;;;9.93;4.50;;;-0.40;99.90;;;;;;4954103;29;20120;-81
2021/01/19 07:20:31;;;;;;;12.25;4.68;;;-0.30;99.90;;;;;;4954092;29;20055;-81
2021/01/19 07:23:00;;;;;;;7.75;5.07;;;-0.30;99.90;;;;;;4954083;29;20054;-81
2021/01/19 07:25:27;;;;;;;9.68;4.82;;;-0.50;99.90;;;;;;4953985;29;20023;-81
2021/01/19 07:27:56;;;;;;;6.90;4.93;;;-0.40;99.90;;;;;;4954006;29;20495;-81
2021/01/19 07:30:23;;;;;;;7.00;4.05;;;-0.20;99.90;;;;;;4953981;29;20034;-81
2021/01/19 07:32:50;;;;;;;8.90;5.07;;;-0.10;99.90;;;;;;4953969;29;20059;-81
2021/01/19 07:35:21;;;;;;;9.82;4.43;;;-0.20;99.90;;;;;;4955157;28;20078;-81
2021/01/19 07:37:54;;;;;;;8.15;4.90;;;-0.10;99.90;;;;;;4955152;28;20028;-81
2021/01/19 07:40:21;;;;;;;10.23;4.80;;;0.00;99.90;;;;;;4955244;28;20027;-81
2021/01/19 07:42:48;;;;;;;9.50;4.28;;;-0.20;99.90;;;;;;4953827;29;20031;-81
2021/01/19 07:45:14;;;;;;;7.65;4.25;;;-0.20;99.90;;;;;;4953699;29;20066;-81
2021/01/19 07:47:42;;;;;;;8.23;3.72;;;0.00;99.90;;;;;;4953830;29;20031;-81
2021/01/19 07:50:16;;;;;;;10.50;5.10;;;-0.10;99.90;;;;;;4955595;28;20028;-81
2021/01/19 07:52:44;;;;;;;9.48;4.60;;;0.10;99.90;;;;;;4953818;29;20028;-81
2021/01/19 07:55:21;;;;;;;12.60;4.13;;;0.00;99.90;;;;;;4953676;29;20419;-82
2021/01/19 07:57:52;;;;;;;9.60;4.65;;;-0.10;99.90;;;;;;4953751;29;20050;-81
2021/01/19 08:00:26;;;;;;;9.65;4.60;;;0.00;99.90;;;;;;4955303;28;20019;-82
2021/01/19 08:03:07;;;;;;;7.75;4.75;;;-0.20;99.90;;;;;;4955071;28;20531;-82
2021/01/19 08:05:33;;;;;;;8.45;4.72;;;-0.10;99.90;;;;;;4953663;29;20062;-81
2021/01/19 08:07:59;;;;;;;8.13;4.72;;;-0.10;99.90;;;;;;4953870;29;20062;-82
2021/01/19 08:10:34;;;;;;;10.32;4.85;;;-0.10;99.90;;;;;;4954389;28;20059;-82
2021/01/19 08:13:00;;;;;;;8.80;5.45;;;-0.10;99.90;;;;;;4957192;29;20423;-81
2021/01/19 08:15:33;;;;;;;11.07;4.72;;;-0.30;99.90;;;;;;4958356;28;20027;-81
2021/01/19 08:18:01;;;;;;;5.25;3.67;;;0.00;99.90;;;;;;4958682;28;20051;-81
2021/01/19 08:20:35;;;;;;;12.10;4.75;;;0.00;99.90;;;;;;4958279;28;20030;-82
2021/01/19 08:23:17;;;;;;;11.18;5.03;;;0.10;99.90;;;;;;4956961;29;20102;-82
2021/01/19 08:25:44;;;;;;;14.48;5.93;;;-0.10;99.90;;;;;;4956917;29;20023;-82
2021/01/19 08:28:10;;;;;;;28.08;9.85;;;0.00;99.90;;;;;;4956872;29;20031;-82
2021/01/19 08:30:39;;;;;;;12.05;6.65;;;0.10;99.90;;;;;;4958064;28;20078;-82
2021/01/19 08:33:05;;;;;;;11.23;5.93;;;0.00;99.90;;;;;;4956763;29;20030;-82
2021/01/19 08:35:31;;;;;;;10.18;5.97;;;0.10;99.90;;;;;;4956695;29;20035;-81
2021/01/19 08:38:01;;;;;;;8.80;5.78;;;0.30;99.90;;;;;;4957870;28;20523;-82
2021/01/19 08:40:31;;;;;;;14.93;6.50;;;0.40;99.90;;;;;;4956598;29;20039;-82
2021/01/19 08:42:57;;;;;;;10.43;6.28;;;0.40;99.90;;;;;;4956601;29;20023;-81
2021/01/19 08:45:38;;;;;;;12.57;6.00;;;0.50;99.90;;;;;;4956356;29;20066;-82
2021/01/19 08:48:06;;;;;;;12.85;7.35;;;0.40;99.90;;;;;;4959906;28;20029;-82
2021/01/19 08:50:36;;;;;;;18.05;7.75;;;0.00;99.90;;;;;;4958057;28;20551;-83
2021/01/19 08:53:13;;;;;;;14.57;7.75;;;-0.20;99.90;;;;;;4956365;29;20122;-81
2021/01/19 08:55:40;;;;;;;13.35;6.82;;;0.20;99.90;;;;;;4956300;29;20027;-81
2021/01/19 08:58:07;;;;;;;11.73;6.80;;;0.50;99.90;;;;;;4956330;29;20043;-82
2021/01/19 09:00:37;;;;;;;13.70;7.28;;;0.50;99.90;;;;;;4956242;29;20024;-82
2021/01/19 09:03:14;;;;;;;12.73;6.18;;;0.60;99.90;;;;;;4956226;29;20076;-82
2021/01/19 09:05:40;;;;;;;10.75;6.40;;;0.90;99.90;;;;;;4957737;28;20035;-82
2021/01/19 09:08:16;;;;;;;12.18;6.45;;;1.10;99.90;;;;;;4957645;28;20032;-82
2021/01/19 09:10:43;;;;;;;12.18;7.13;;;1.10;99.90;;;;;;4957383;28;20023;-82
2021/01/19 09:13:09;;;;;;;11.27;6.53;;;1.00;99.90;;;;;;4957336;28;20102;-82
2021/01/19 09:15:40;;;;;;;12.43;6.72;;;1.10;99.90;;;;;;4955927;29;20033;-82
2021/01/19 09:18:11;;;;;;;10.07;6.05;;;1.40;99.90;;;;;;4957178;28;20046;-82
2021/01/19 09:20:37;;;;;;;10.27;5.47;;;1.70;99.90;;;;;;4955941;29;20547;-81
2021/01/19 09:23:17;;;;;;;12.73;6.85;;;1.30;99.90;;;;;;4955983;28;20027;-82
2021/01/19 09:25:44;;;;;;;18.48;6.35;;;1.20;99.90;;;;;;4955969;29;20057;-82
2021/01/19 09:28:13;;;;;;;11.18;6.18;;;1.10;99.90;;;;;;4956049;29;20041;-82
2021/01/19 09:30:39;;;;;;;9.40;5.90;;;1.20;99.90;;;;;;4957028;28;20054;-82
2021/01/19 09:33:10;;;;;;;11.10;6.30;;;1.30;99.90;;;;;;4956900;28;20085;-81
2021/01/19 09:35:38;;;;;;;12.02;7.38;;;1.50;99.90;;;;;;4955640;29;20038;-82
2021/01/19 09:38:04;;;;;;;12.43;6.40;;;1.00;99.90;;;;;;4956802;28;20027;-80
2021/01/19 09:40:34;;;;;;;13.13;6.63;;;1.10;99.90;;;;;;4955583;29;20033;-82
2021/01/19 09:43:06;;;;;;;12.43;6.75;;;1.10;99.90;;;;;;4955557;29;20031;-80
2021/01/19 09:45:35;;;;;;;11.52;7.00;;;1.40;99.90;;;;;;4955306;29;20443;-80
2021/01/19 09:48:02;;;;;;;14.63;6.93;;;1.40;99.90;;;;;;4955404;29;20037;-81
2021/01/19 09:50:28;;;;;;;11.38;6.07;;;1.70;99.90;;;;;;4955307;29;20027;-81
2021/01/19 09:52:54;;;;;;;10.80;6.70;;;1.60;99.90;;;;;;4955241;29;20034;-81
2021/01/19 09:55:23;;;;;;;12.55;6.40;;;1.90;99.90;;;;;;4955173;29;20039;-81
2021/01/19 09:57:59;;;;;;;10.40;6.45;;;1.90;99.90;;;;;;4955251;29;20042;-81
2021/01/19 10:00:33;;;;;;;15.63;7.20;;;2.00;99.90;;;;;;4956406;28;20047;-80
2021/01/19 10:03:16;;;;;;;10.20;6.05;;;1.90;99.90;;;;;;4955179;29;20475;-81
2021/01/19 10:05:57;;;;;;;13.85;7.10;;;1.90;99.90;;;;;;4956706;28;20447;-81
2021/01/19 10:08:23;;;;;;;9.02;5.97;;;2.20;99.90;;;;;;4955109;29;20114;-81
2021/01/19 10:10:49;;;;;;;9.98;6.53;;;2.20;99.90;;;;;;4956804;28;20027;-82
2021/01/19 10:13:15;;;;;;;13.57;6.50;;;2.40;99.90;;;;;;4955197;29;20027;-82
2021/01/19 10:15:40;;;;;;;12.13;6.38;;;2.30;99.90;;;;;;4956091;28;20101;-81
2021/01/19 10:18:09;;;;;;;12.43;6.80;;;2.40;99.90;;;;;;4954920;29;20467;-81
2021/01/19 10:20:37;;;;;;;13.52;7.43;;;2.20;99.90;;;;;;4954739;29;20030;-82
2021/01/19 10:23:04;;;;;;;13.82;7.82;;;1.50;99.90;;;;;;4955021;29;20032;-81
2021/01/19 10:25:36;;;;;;;16.13;6.63;;;1.40;99.90;;;;;;4954721;29;20122;-81
2021/01/19 10:28:05;;;;;;;12.68;6.68;;;1.70;99.90;;;;;;4954746;29;20031;-82
2021/01/19 10:30:36;;;;;;;10.52;6.45;;;2.00;99.90;;;;;;4954710;29;20031;-82
2021/01/19 10:33:03;;;;;;;13.90;6.57;;;2.30;99.90;;;;;;4954312;28;20483;-81
2021/01/19 10:35:34;;;;;;;15.93;7.18;;;2.40;99.90;;;;;;4954525;29;20050;-81
2021/01/19 10:38:08;;;;;;;11.57;6.60;;;2.30;99.90;;;;;;4954465;28;20023;-81
2021/01/19 10:40:36;;;;;;;11.75;6.00;;;2.50;99.90;;;;;;4954537;29;20053;-82
2021/01/19 10:43:12;;;;;;;13.57;6.65;;;2.60;99.90;;;;;;4955760;28;20424;-82
2021/01/19 10:45:42;;;;;;;12.07;6.38;;;2.60;99.90;;;;;;4955567;28;20058;-82
2021/01/19 10:48:22;;;;;;;15.98;6.45;;;2.70;99.90;;;;;;4954531;29;20027;-82
2021/01/19 10:50:48;;;;;;;13.82;5.95;;;2.70;99.90;;;;;;4954267;29;20023;-81
2021/01/19 10:53:13;;;;;;;10.27;5.47;;;2.70;99.90;;;;;;4954293;29;20035;-81
2021/01/19 10:55:39;;;;;;;12.10;5.80;;;2.90;99.90;;;;;;4954207;29;20082;-81
2021/01/19 10:58:06;;;;;;;16.63;6.30;;;2.90;99.90;;;;;;4955455;28;20026;-81
2021/01/19 11:00:34;;;;;;;13.20;6.15;;;2.80;99.90;;;;;;4955685;28;20027;-79
2021/01/19 11:03:00;;;;;;;14.07;6.55;;;2.40;99.90;;;;;;4955475;28;20471;-80
2021/01/19 11:05:26;;;;;;;11.00;6.07;;;2.30;99.90;;;;;;4955482;28;20447;-80
2021/01/19 11:07:54;;;;;;;16.48;6.78;;;2.10;99.90;;;;;;4955421;28;20476;-80
2021/01/19 11:10:24;;;;;;;11.95;6.38;;;2.00;99.90;;;;;;4954155;29;20024;-83
2021/01/19 11:12:59;;;;;;;10.98;6.05;;;2.00;99.90;;;;;;4955969;28;20027;-81
2021/01/19 11:15:25;;;;;;;11.77;6.43;;;2.30;99.90;;;;;;4954565;29;20024;-84
2021/01/19 11:17:52;;;;;;;18.85;6.00;;;2.40;99.90;;;;;;4955987;28;20050;-82
2021/01/19 11:20:18;;;;;;;11.68;5.90;;;2.60;99.90;;;;;;4953952;29;20019;-80
2021/01/19 11:22:46;;;;;;;16.00;5.95;;;2.80;99.90;;;;;;4955331;28;20035;-82
2021/01/19 11:25:13;;;;;;;15.35;6.75;;;2.80;99.90;;;;;;4955593;28;20031;-81
2021/01/19 11:27:39;;;;;;;13.15;6.20;;;2.60;99.90;;;;;;4955530;28;20066;-82
2021/01/19 11:30:06;;;;;;;17.13;6.10;;;2.70;99.90;;;;;;4955454;28;20059;-83
2021/01/19 11:32:32;;;;;;;8.88;5.70;;;2.80;99.90;;;;;;4954003;29;20031;-83
2021/01/19 11:34:59;;;;;;;12.45;6.60;;;2.90;99.90;;;;;;4955100;28;20038;-82
2021/01/19 11:37:25;;;;;;;11.90;5.63;;;2.70;99.90;;;;;;4953845;28;20447;-83
2021/01/19 11:39:50;;;;;;;10.85;5.70;;;2.40;99.90;;;;;;4953838;29;20130;-84
2021/01/19 11:42:16;;;;;;;9.88;5.20;;;2.50;99.90;;;;;;4955148;28;20098;-84
2021/01/19 11:44:42;;;;;;;10.50;5.22;;;2.80;99.90;;;;;;4953685;28;20051;-82
2021/01/19 11:47:07;;;;;;;7.15;4.90;;;3.10;99.90;;;;;;4958750;28;20055;-84
2021/01/19 11:49:34;;;;;;;10.25;4.78;;;3.30;99.90;;;;;;4957614;29;20055;-82
2021/01/19 11:52:00;;;;;;;11.57;5.20;;;3.10;99.90;;;;;;4957516;29;20027;-82
2021/01/19 11:54:26;;;;;;;12.52;5.20;;;2.90;99.90;;;;;;4957397;29;20502;-83
2021/01/19 11:56:52;;;;;;;10.70;4.82;;;2.90;99.90;;;;;;4958768;28;20095;-83
2021/01/19 11:59:22;;;;;;;8.55;4.63;;;2.90;99.90;;;;;;4957409;29;20027;-83
2021/01/19 12:01:55;;;;;;;9.20;4.60;;;2.80;99.90;;;;;;4957400;29;20047;-82
2021/01/19 12:04:21;;;;;;;8.15;4.47;;;2.90;99.90;;;;;;4959325;28;20026;-84
2021/01/19 12:06:47;;;;;;;10.63;4.95;;;3.10;99.90;;;;;;4958570;28;20059;-83
2021/01/19 12:09:13;;;;;;;8.38;4.40;;;3.20;99.90;;;;;;4957262;29;20491;-82
2021/01/19 12:11:43;;;;;;;9.65;4.57;;;3.10;99.90;;;;;;4957212;29;20024;-83
2021/01/19 12:14:10;;;;;;;9.52;4.55;;;3.20;99.90;;;;;;4958401;28;20107;-83
2021/01/19 12:16:36;;;;;;;6.97;3.92;;;3.30;99.90;;;;;;4957104;29;20065;-83
2021/01/19 12:19:09;;;;;;;7.38;4.05;;;3.20;99.90;;;;;;4957538;29;20024;-83
2021/01/19 12:21:36;;;;;;;7.32;4.22;;;3.20;99.90;;;;;;4958341;28;20023;-83
2021/01/19 12:24:03;;;;;;;9.90;4.68;;;3.20;99.90;;;;;;4956970;29;20514;-84
2021/01/19 12:26:29;;;;;;;12.27;4.63;;;3.10;99.90;;;;;;4956885;29;20553;-84
2021/01/19 12:28:55;;;;;;;8.70;4.50;;;3.10;99.90;;;;;;4958518;28;20098;-82
2021/01/19 12:31:21;;;;;;;7.32;3.78;;;3.20;99.90;;;;;;4958209;28;20051;-83
2021/01/19 12:33:46;;;;;;;7.43;3.70;;;3.30;99.90;;;;;;4956787;29;20072;-83
2021/01/19 12:36:12;;;;;;;7.35;2.75;;;3.40;99.90;;;;;;4956678;28;20024;-86
2021/01/19 12:38:38;;;;;;;4.85;2.42;;;3.50;99.90;;;;;;4956748;29;20038;-84
2021/01/19 12:41:04;;;;;;;6.30;2.13;;;3.50;99.90;;;;;;4956686;29;20211;-83
2021/01/19 12:43:30;;;;;;;6.90;1.83;;;3.50;99.90;;;;;;4958089;28;20028;-82
2021/01/19 12:45:56;;;;;;;6.72;2.25;;;3.60;99.90;;;;;;4957661;28;20058;-82
2021/01/19 12:48:22;;;;;;;5.40;1.67;;;3.50;99.90;;;;;;4957793;28;20098;-82
2021/01/19 12:50:48;;;;;;;7.43;1.77;;;3.60;99.90;;;;;;4957776;28;20057;-82
2021/01/19 12:53:13;;;;;;;6.40;1.90;;;3.60;99.90;;;;;;4957744;28;20082;-83
2021/01/19 12:55:39;;;;;;;3.40;1.60;;;3.70;99.90;;;;;;4956344;29;20426;-83
2021/01/19 12:58:05;;;;;;;5.35;2.35;;;3.60;99.90;;;;;;4956407;28;20439;-83
2021/01/19 13:00:31;;;;;;;8.40;2.13;;;3.70;99.90;;;;;;4957663;28;20023;-83
2021/01/19 13:02:56;;;;;;;10.07;3.28;;;3.70;99.90;;;;;;4957541;28;20476;-84